Time;durP1;ratioP1;P1;durP2;ratioP2;P2;SDS_P1;SDS_P2;PMS_P1;PMS_P2;Temp;Humidity;BMP_temperature;BMP_pressure;BME280_temperature;BME280_humidity;BME280_pressure;Samples;Min_cycle;Max_cycle;Signal;HPM_P1;HPM_P2
2022/03/19 00:01:01;;;;;;;5.87;2.70;;;8.30;99.90;;;;;;5015954;28;20206;-75
2022/03/19 00:03:29;;;;;;;7.70;2.97;;;8.30;99.90;;;;;;5023862;28;20208;-74
2022/03/19 00:05:56;;;;;;;3.67;2.20;;;8.30;99.90;;;;;;5013244;28;20291;-76
2022/03/19 00:08:23;;;;;;;4.73;2.20;;;8.30;99.90;;;;;;5026507;28;20216;-74
2022/03/19 00:10:50;;;;;;;5.73;2.70;;;8.30;99.90;;;;;;5036583;28;20202;-74
2022/03/19 00:13:17;;;;;;;4.40;2.43;;;8.30;99.90;;;;;;5020081;28;20587;-73
2022/03/19 00:15:44;;;;;;;4.33;2.27;;;8.40;99.90;;;;;;5025340;28;20636;-72
2022/03/19 00:18:11;;;;;;;4.23;2.60;;;8.40;99.90;;;;;;5019287;28;20672;-73
2022/03/19 00:20:38;;;;;;;4.40;2.20;;;8.40;99.90;;;;;;5017226;28;20196;-75
2022/03/19 00:23:05;;;;;;;4.30;2.10;;;8.30;99.90;;;;;;5027014;28;20191;-73
2022/03/19 00:25:32;;;;;;;7.07;2.40;;;8.30;99.90;;;;;;5023498;28;20203;-73
2022/03/19 00:27:59;;;;;;;5.33;2.30;;;8.40;99.90;;;;;;5009357;28;20208;-73
2022/03/19 00:30:26;;;;;;;4.83;2.20;;;8.40;99.90;;;;;;5020974;28;20200;-74
2022/03/19 00:32:52;;;;;;;4.73;2.23;;;8.40;99.90;;;;;;5023820;28;20223;-73
2022/03/19 00:35:19;;;;;;;7.90;2.10;;;8.40;99.90;;;;;;5023423;28;20206;-70
2022/03/19 00:37:49;;;;;;;5.63;2.37;;;8.30;99.90;;;;;;5022837;28;20717;-73
2022/03/19 00:40:18;;;;;;;4.83;2.30;;;8.30;99.90;;;;;;5022402;28;20199;-73
2022/03/19 00:42:47;;;;;;;7.73;2.30;;;8.30;99.90;;;;;;5026941;28;20692;-73
2022/03/19 00:45:14;;;;;;;5.73;2.00;;;8.30;99.90;;;;;;5019704;28;20662;-73
2022/03/19 00:47:41;;;;;;;6.57;2.33;;;8.30;99.90;;;;;;5028509;28;20226;-75
2022/03/19 00:50:08;;;;;;;4.23;2.10;;;8.30;99.90;;;;;;5021067;28;20203;-73
2022/03/19 00:52:35;;;;;;;5.13;2.07;;;8.30;99.90;;;;;;5029250;28;20702;-73
2022/03/19 00:55:03;;;;;;;6.07;2.27;;;8.20;99.90;;;;;;5027903;28;20182;-73
2022/03/19 00:57:39;;;;;;;5.20;2.20;;;8.30;99.90;;;;;;5020488;28;20219;-73
2022/03/19 01:00:11;;;;;;;4.70;2.07;;;8.20;99.90;;;;;;5023505;28;20246;-75
2022/03/19 01:02:39;;;;;;;4.97;2.10;;;8.20;99.90;;;;;;5023947;28;20197;-73
2022/03/19 01:05:07;;;;;;;10.10;2.10;;;8.20;99.90;;;;;;5024057;28;20231;-73
2022/03/19 01:07:41;;;;;;;4.77;2.37;;;8.20;99.90;;;;;;5020970;28;20713;-73
2022/03/19 01:10:09;;;;;;;5.93;2.10;;;8.20;99.90;;;;;;5020812;28;20216;-73
2022/03/19 01:12:35;;;;;;;3.97;2.03;;;8.20;99.90;;;;;;5021504;28;20227;-74
2022/03/19 01:15:02;;;;;;;8.53;2.23;;;8.20;99.90;;;;;;5023963;28;20202;-72
2022/03/19 01:17:29;;;;;;;11.07;3.00;;;8.30;99.90;;;;;;5031625;28;20215;-72
2022/03/19 01:19:58;;;;;;;6.07;2.33;;;8.20;99.90;;;;;;5027232;28;20196;-74
2022/03/19 01:22:26;;;;;;;8.77;2.20;;;8.10;99.90;;;;;;5023800;28;20193;-74
2022/03/19 01:24:52;;;;;;;8.53;2.23;;;8.20;99.90;;;;;;5013907;28;20200;-73
2022/03/19 01:27:19;;;;;;;4.73;2.20;;;8.20;99.90;;;;;;5018878;28;20656;-73
2022/03/19 01:29:46;;;;;;;6.50;2.37;;;8.20;99.90;;;;;;5028914;28;20204;-73
2022/03/19 01:32:13;;;;;;;5.27;2.27;;;8.20;99.90;;;;;;5016623;28;20267;-73
2022/03/19 01:34:40;;;;;;;7.63;2.97;;;8.20;99.90;;;;;;5020683;28;20208;-73
2022/03/19 01:37:07;;;;;;;5.87;2.23;;;8.20;99.90;;;;;;5016687;28;20248;-75
2022/03/19 01:39:33;;;;;;;6.03;2.13;;;8.20;99.90;;;;;;5030557;28;20196;-73
2022/03/19 01:42:00;;;;;;;4.73;2.10;;;8.20;99.90;;;;;;5031461;28;20576;-72
2022/03/19 01:44:27;;;;;;;6.57;2.40;;;8.30;99.90;;;;;;5023235;28;20282;-72
2022/03/19 01:46:58;;;;;;;7.03;2.50;;;8.30;99.90;;;;;;5028650;28;20202;-73
2022/03/19 01:49:25;;;;;;;4.67;2.60;;;8.30;99.90;;;;;;5019529;28;20227;-72
2022/03/19 01:51:52;;;;;;;5.60;2.50;;;8.20;99.90;;;;;;5026705;28;20223;-73
2022/03/19 01:54:28;;;;;;;5.97;3.13;;;8.20;99.90;;;;;;5022490;28;20282;-76
2022/03/19 01:56:56;;;;;;;11.03;2.93;;;8.20;99.90;;;;;;5027714;28;20685;-74
2022/03/19 01:59:24;;;;;;;8.17;2.70;;;8.30;99.90;;;;;;5021575;28;20212;-73
2022/03/19 02:01:51;;;;;;;6.33;3.10;;;8.30;99.90;;;;;;5014166;28;20232;-72
2022/03/19 02:04:18;;;;;;;5.23;2.80;;;8.30;99.90;;;;;;5021532;28;20203;-75
2022/03/19 02:06:45;;;;;;;6.03;2.70;;;8.30;99.90;;;;;;5038332;28;20694;-74
2022/03/19 02:09:13;;;;;;;9.37;3.30;;;8.30;99.90;;;;;;5026952;28;20228;-75
2022/03/19 02:11:39;;;;;;;7.90;3.00;;;8.30;99.90;;;;;;5015903;28;20219;-73
2022/03/19 02:14:07;;;;;;;4.40;2.77;;;8.30;99.90;;;;;;5026407;28;20202;-73
2022/03/19 02:16:33;;;;;;;7.53;2.90;;;8.20;99.90;;;;;;5026375;28;20218;-75
2022/03/19 02:19:00;;;;;;;8.80;2.70;;;8.20;99.90;;;;;;5031162;28;20238;-72
2022/03/19 02:21:38;;;;;;;6.60;2.53;;;8.20;99.90;;;;;;5023017;28;20198;-74
2022/03/19 02:26:51;;;;;;;9.53;2.90;;;8.10;99.90;;;;;;5018764;28;20199;-73
2022/03/19 02:29:17;;;;;;;7.47;3.40;;;8.10;99.90;;;;;;5020856;28;20215;-73
2022/03/19 02:31:46;;;;;;;6.93;2.73;;;8.00;99.90;;;;;;5024289;28;20243;-73
2022/03/19 02:34:13;;;;;;;7.10;3.10;;;8.00;99.90;;;;;;5021228;28;20669;-74
2022/03/19 02:36:40;;;;;;;7.23;3.60;;;8.00;99.90;;;;;;5028189;28;20262;-73
2022/03/19 02:39:31;;;;;;;9.57;3.93;;;8.00;99.90;;;;;;5028942;28;20216;-73
2022/03/19 02:42:02;;;;;;;10.17;3.27;;;8.10;99.90;;;;;;5029132;28;20201;-74
2022/03/19 02:44:29;;;;;;;9.87;3.60;;;8.10;99.90;;;;;;5026293;28;20210;-76
2022/03/19 02:46:59;;;;;;;8.20;3.60;;;8.00;99.90;;;;;;5024618;28;20234;-72
2022/03/19 02:49:26;;;;;;;7.00;3.50;;;8.00;99.90;;;;;;5020944;28;20877;-73
2022/03/19 02:51:54;;;;;;;10.87;3.80;;;8.00;99.90;;;;;;5025185;28;20717;-73
2022/03/19 02:54:23;;;;;;;10.27;4.10;;;8.00;99.90;;;;;;5017572;28;20200;-72
2022/03/19 02:56:51;;;;;;;9.67;3.40;;;8.00;99.90;;;;;;5025487;28;20198;-73
2022/03/19 02:59:25;;;;;;;10.00;3.60;;;8.00;99.90;;;;;;5020784;28;20215;-74
2022/03/19 03:01:55;;;;;;;8.33;4.10;;;8.00;99.90;;;;;;5027222;28;20204;-73
2022/03/19 03:04:23;;;;;;;9.10;3.67;;;8.00;99.90;;;;;;5031090;28;20311;-73
2022/03/19 03:06:52;;;;;;;7.03;3.30;;;8.00;99.90;;;;;;5030016;28;20203;-73
2022/03/19 03:09:22;;;;;;;10.73;4.13;;;8.00;99.90;;;;;;5016568;28;20287;-73
2022/03/19 03:11:50;;;;;;;6.87;3.27;;;8.00;99.90;;;;;;5017046;28;20224;-74
2022/03/19 03:14:20;;;;;;;12.13;4.30;;;7.90;99.90;;;;;;5013086;28;20519;-73
2022/03/19 03:16:48;;;;;;;9.60;4.00;;;7.90;99.90;;;;;;5018493;28;20595;-73
2022/03/19 03:19:15;;;;;;;9.13;3.70;;;7.90;99.90;;;;;;5016554;28;20695;-76
2022/03/19 03:21:43;;;;;;;10.23;4.10;;;7.90;99.90;;;;;;5031134;28;20188;-74
2022/03/19 03:24:10;;;;;;;8.10;3.80;;;7.90;99.90;;;;;;5025405;28;20192;-76
2022/03/19 03:26:38;;;;;;;10.17;3.77;;;7.90;99.90;;;;;;5030606;28;20776;-74
2022/03/19 03:29:06;;;;;;;11.53;4.10;;;7.90;99.90;;;;;;5021959;28;20215;-73
2022/03/19 03:31:33;;;;;;;8.03;3.97;;;7.80;99.90;;;;;;5014116;28;20588;-73
2022/03/19 03:34:01;;;;;;;9.53;4.00;;;7.80;99.90;;;;;;5021877;28;20192;-75
2022/03/19 03:36:28;;;;;;;10.43;3.73;;;7.70;99.90;;;;;;5020517;28;20570;-76
2022/03/19 03:38:55;;;;;;;8.20;3.80;;;7.70;99.90;;;;;;5015805;28;20216;-74
2022/03/19 03:41:21;;;;;;;10.83;4.10;;;7.70;99.90;;;;;;5030190;28;20198;-74
2022/03/19 03:43:48;;;;;;;11.33;3.57;;;7.70;99.90;;;;;;5028561;28;20201;-74
2022/03/19 03:46:15;;;;;;;9.03;3.23;;;7.60;99.90;;;;;;5024491;28;20206;-72
2022/03/19 03:48:42;;;;;;;8.23;3.40;;;7.60;99.90;;;;;;5016286;28;20216;-74
2022/03/19 03:51:11;;;;;;;11.10;3.83;;;7.50;99.90;;;;;;5028431;28;20253;-75
2022/03/19 03:53:39;;;;;;;11.93;3.13;;;7.50;99.90;;;;;;5020921;28;20238;-74
2022/03/19 03:56:07;;;;;;;8.20;3.60;;;7.50;99.90;;;;;;5019031;28;20198;-74
2022/03/19 03:58:34;;;;;;;9.23;3.30;;;7.50;99.90;;;;;;5024616;28;20295;-74
2022/03/19 04:01:01;;;;;;;9.50;3.23;;;7.50;99.90;;;;;;5017661;28;20208;-76
2022/03/19 04:03:28;;;;;;;8.97;3.40;;;7.40;99.90;;;;;;5016711;28;20201;-75
2022/03/19 04:05:54;;;;;;;6.77;2.90;;;7.40;99.90;;;;;;5018516;28;20200;-73
2022/03/19 04:08:21;;;;;;;7.53;3.13;;;7.30;99.90;;;;;;5018100;28;20303;-74
2022/03/19 04:10:48;;;;;;;7.43;2.70;;;7.30;99.90;;;;;;5025374;28;20207;-74
2022/03/19 04:13:15;;;;;;;7.20;2.83;;;7.30;99.90;;;;;;5015364;28;20224;-72
2022/03/19 04:15:41;;;;;;;5.10;2.50;;;7.30;99.90;;;;;;5024827;28;20195;-72
2022/03/19 04:18:08;;;;;;;7.90;2.70;;;7.30;99.90;;;;;;5020697;28;20211;-69
2022/03/19 04:20:35;;;;;;;6.40;2.90;;;7.30;99.90;;;;;;5015312;28;20199;-72
2022/03/19 04:23:02;;;;;;;7.50;2.77;;;7.30;99.90;;;;;;5022431;28;20199;-72
2022/03/19 04:25:29;;;;;;;5.90;2.40;;;7.20;99.90;;;;;;5027861;28;20246;-71
2022/03/19 04:27:56;;;;;;;6.47;2.50;;;7.20;99.90;;;;;;5017421;28;20703;-74
2022/03/19 04:30:26;;;;;;;5.60;2.63;;;7.30;99.90;;;;;;5021751;28;20367;-72
2022/03/19 04:32:56;;;;;;;8.37;2.67;;;7.30;99.90;;;;;;5010176;28;20235;-72
2022/03/19 04:38:12;;;;;;;5.67;2.40;;;7.20;99.90;;;;;;5018923;28;20306;-72
2022/03/19 04:40:40;;;;;;;6.90;2.40;;;7.10;99.90;;;;;;5015521;28;20203;-74
2022/03/19 04:43:08;;;;;;;6.50;2.20;;;7.10;99.90;;;;;;5029977;28;20214;-73
2022/03/19 04:45:36;;;;;;;5.17;2.20;;;7.00;99.90;;;;;;5023983;28;20241;-73
2022/03/19 04:48:04;;;;;;;6.77;2.47;;;7.10;99.90;;;;;;5010213;28;20212;-75
2022/03/19 04:50:30;;;;;;;3.67;1.90;;;7.00;99.90;;;;;;5029613;28;20207;-74
2022/03/19 04:52:58;;;;;;;6.60;2.23;;;7.00;99.90;;;;;;5028005;28;20959;-73
2022/03/19 04:55:26;;;;;;;5.87;2.37;;;6.90;99.90;;;;;;5022512;28;20194;-73
2022/03/19 04:57:52;;;;;;;8.03;2.40;;;6.80;99.90;;;;;;5023888;28;20214;-73
2022/03/19 05:00:20;;;;;;;6.67;2.77;;;6.80;99.90;;;;;;5022079;28;20255;-74
2022/03/19 05:02:46;;;;;;;4.43;2.00;;;7.00;99.90;;;;;;5028774;28;20446;-73
2022/03/19 05:05:13;;;;;;;6.33;2.10;;;7.10;99.90;;;;;;5019289;28;20196;-73
2022/03/19 05:07:40;;;;;;;7.20;2.30;;;6.90;99.90;;;;;;5020082;28;20223;-74
2022/03/19 05:12:54;;;;;;;7.60;2.20;;;6.90;99.90;;;;;;5025442;28;20212;-73
2022/03/19 05:15:24;;;;;;;8.13;2.40;;;6.90;99.90;;;;;;5016962;28;20193;-75
2022/03/19 05:17:51;;;;;;;2.97;1.77;;;6.80;99.90;;;;;;5015309;28;20216;-74
2022/03/19 05:20:18;;;;;;;6.60;2.73;;;6.70;99.90;;;;;;5018921;28;20200;-73
2022/03/19 05:22:45;;;;;;;5.13;2.10;;;6.70;99.90;;;;;;5021122;28;20199;-73
2022/03/19 05:25:11;;;;;;;7.23;2.33;;;6.70;99.90;;;;;;5021188;28;20199;-74
2022/03/19 05:27:38;;;;;;;4.83;1.83;;;6.70;99.90;;;;;;5026236;28;20215;-72
2022/03/19 05:30:08;;;;;;;4.77;1.97;;;6.60;99.90;;;;;;5032859;28;20198;-74
2022/03/19 05:32:36;;;;;;;6.07;2.20;;;6.70;99.90;;;;;;5033223;28;20681;-73
2022/03/19 05:35:04;;;;;;;3.73;1.80;;;6.70;99.90;;;;;;5021451;28;20214;-73
2022/03/19 05:37:32;;;;;;;7.23;1.90;;;6.70;99.90;;;;;;5024070;28;20241;-73
2022/03/19 05:40:00;;;;;;;4.80;1.97;;;6.70;99.90;;;;;;5028693;28;20191;-73
2022/03/19 05:42:28;;;;;;;6.23;2.30;;;6.70;99.90;;;;;;5032792;28;20204;-73
2022/03/19 05:44:55;;;;;;;5.37;2.30;;;6.70;99.90;;;;;;5032092;28;20680;-73
2022/03/19 05:47:22;;;;;;;6.37;2.17;;;6.60;99.90;;;;;;5022102;28;20204;-73
2022/03/19 05:49:49;;;;;;;5.07;2.00;;;6.70;99.90;;;;;;5023104;28;20203;-74
2022/03/19 05:52:16;;;;;;;7.10;2.10;;;6.70;99.90;;;;;;5020514;28;20239;-73
2022/03/19 05:54:42;;;;;;;4.43;2.03;;;6.60;99.90;;;;;;5030742;28;20204;-75
2022/03/19 05:57:09;;;;;;;6.67;1.80;;;6.60;99.90;;;;;;5019008;28;20205;-75
2022/03/19 05:59:36;;;;;;;6.47;2.23;;;6.60;99.90;;;;;;5026773;28;20234;-73
2022/03/19 06:02:05;;;;;;;6.93;2.20;;;6.70;99.90;;;;;;5030166;28;20206;-73
2022/03/19 06:04:34;;;;;;;4.90;1.97;;;6.80;99.90;;;;;;5026212;28;20198;-73
2022/03/19 06:07:01;;;;;;;8.10;2.20;;;7.00;99.90;;;;;;5028021;28;20204;-73
2022/03/19 06:09:28;;;;;;;7.93;2.30;;;7.00;99.90;;;;;;5032033;28;20219;-73
2022/03/19 06:11:55;;;;;;;8.20;2.43;;;7.10;99.90;;;;;;5029749;28;20679;-73
2022/03/19 06:14:21;;;;;;;5.87;2.27;;;7.10;99.90;;;;;;5024180;28;20741;-73
2022/03/19 06:16:49;;;;;;;6.60;2.30;;;7.20;99.90;;;;;;5025447;28;20187;-73
2022/03/19 06:19:17;;;;;;;5.57;2.30;;;7.20;99.90;;;;;;5029874;28;20216;-71
2022/03/19 06:21:45;;;;;;;4.83;2.10;;;7.30;99.90;;;;;;5027340;28;20197;-73
2022/03/19 06:24:16;;;;;;;6.77;2.67;;;7.30;99.90;;;;;;5037570;28;20723;-75
2022/03/19 06:26:43;;;;;;;6.13;2.30;;;7.30;99.90;;;;;;5025655;28;20199;-72
2022/03/19 06:29:10;;;;;;;7.57;2.60;;;7.30;99.90;;;;;;5027728;28;20215;-72
2022/03/19 06:31:36;;;;;;;3.80;2.13;;;7.30;99.90;;;;;;5023575;28;20670;-72
2022/03/19 06:34:03;;;;;;;8.87;2.83;;;7.40;99.90;;;;;;5024779;28;20219;-72
2022/03/19 06:39:15;;;;;;;5.43;2.77;;;7.60;99.90;;;;;;5023803;28;20219;-73
2022/03/19 06:41:42;;;;;;;7.93;2.37;;;7.50;99.90;;;;;;5028599;28;20536;-75
2022/03/19 06:44:09;;;;;;;6.83;2.40;;;7.60;99.90;;;;;;5024969;28;20690;-73
2022/03/19 06:46:35;;;;;;;6.00;2.77;;;7.80;99.90;;;;;;5019935;28;20611;-72
2022/03/19 06:49:02;;;;;;;7.43;3.10;;;7.80;99.90;;;;;;5027577;28;20270;-72
2022/03/19 06:51:29;;;;;;;5.70;2.63;;;8.00;99.90;;;;;;5031360;28;20199;-73
2022/03/19 06:53:56;;;;;;;5.70;2.80;;;8.10;99.90;;;;;;5029340;28;20220;-74
2022/03/19 06:56:23;;;;;;;6.90;2.97;;;8.10;99.90;;;;;;5021824;28;20192;-73
2022/03/19 06:58:55;;;;;;;8.83;3.13;;;8.20;99.90;;;;;;5027268;28;20217;-73
2022/03/19 07:01:22;;;;;;;8.43;3.07;;;8.30;99.90;;;;;;5030450;28;20668;-74
2022/03/19 07:03:48;;;;;;;9.13;3.47;;;8.50;99.90;;;;;;5024891;28;20204;-73
2022/03/19 07:06:17;;;;;;;6.83;3.10;;;8.50;99.90;;;;;;5028581;28;20672;-73
2022/03/19 07:09:05;;;;;;;6.30;3.27;;;8.60;99.90;;;;;;5014550;28;20792;-74
2022/03/19 07:11:32;;;;;;;8.17;2.80;;;8.70;99.90;;;;;;5017898;28;20196;-73
2022/03/19 07:14:01;;;;;;;7.37;3.70;;;8.70;99.90;;;;;;5026843;28;20218;-74
2022/03/19 07:16:28;;;;;;;9.10;3.27;;;8.70;99.90;;;;;;5026268;28;20189;-73
2022/03/19 07:18:55;;;;;;;10.80;3.30;;;8.80;99.90;;;;;;5025461;28;20703;-73
2022/03/19 07:21:22;;;;;;;11.90;3.97;;;8.90;99.90;;;;;;5020915;28;20191;-74
2022/03/19 07:23:50;;;;;;;10.40;3.97;;;9.00;99.90;;;;;;5018913;28;20197;-75
2022/03/19 07:26:17;;;;;;;10.07;3.63;;;9.00;99.90;;;;;;5028668;28;20204;-71
2022/03/19 07:28:43;;;;;;;7.30;3.40;;;9.00;99.90;;;;;;5020369;28;20300;-74
2022/03/19 07:31:10;;;;;;;8.70;3.27;;;9.10;99.90;;;;;;5022375;28;20204;-73
2022/03/19 07:33:37;;;;;;;10.93;3.10;;;9.10;99.90;;;;;;5013455;28;20217;-72
2022/03/19 07:36:04;;;;;;;6.77;2.80;;;9.20;99.90;;;;;;5025415;28;20225;-73
2022/03/19 07:38:31;;;;;;;6.83;3.43;;;9.20;99.90;;;;;;5016316;28;20218;-73
2022/03/19 07:43:43;;;;;;;6.97;3.30;;;9.10;99.90;;;;;;5029682;28;20203;-73
2022/03/19 07:46:10;;;;;;;5.73;3.10;;;9.20;99.90;;;;;;5019679;28;20200;-73
2022/03/19 07:48:37;;;;;;;5.97;3.03;;;9.30;99.90;;;;;;5026868;28;20229;-73
2022/03/19 07:51:04;;;;;;;6.80;3.07;;;9.40;99.90;;;;;;5030025;28;20206;-74
2022/03/19 07:53:31;;;;;;;8.10;3.73;;;9.50;99.90;;;;;;5028312;28;20280;-73
2022/03/19 07:55:58;;;;;;;7.60;3.07;;;9.50;99.90;;;;;;5021000;28;20749;-74
2022/03/19 07:58:24;;;;;;;10.63;3.20;;;9.50;99.90;;;;;;5010348;28;20223;-73
2022/03/19 08:00:51;;;;;;;8.63;3.40;;;9.60;99.90;;;;;;5019190;28;20221;-73
2022/03/19 08:03:19;;;;;;;6.33;3.20;;;9.50;99.90;;;;;;5021732;28;20203;-74
2022/03/19 08:05:46;;;;;;;6.80;3.67;;;9.60;99.90;;;;;;5020332;28;21018;-73
2022/03/19 08:08:13;;;;;;;8.73;3.43;;;9.70;99.90;;;;;;5016842;28;20702;-74
2022/03/19 08:10:40;;;;;;;5.20;3.23;;;9.80;99.90;;;;;;5019988;28;20199;-73
2022/03/19 08:13:09;;;;;;;6.87;3.20;;;10.00;99.90;;;;;;5024870;28;20223;-73
2022/03/19 08:15:39;;;;;;;8.83;3.00;;;10.10;99.90;;;;;;5025392;28;20685;-74
2022/03/19 08:18:06;;;;;;;7.17;3.10;;;10.20;99.90;;;;;;5029601;28;20278;-73
2022/03/19 08:20:33;;;;;;;10.77;3.47;;;10.30;99.90;;;;;;5024682;28;20196;-73
2022/03/19 08:23:00;;;;;;;10.47;3.70;;;10.40;99.90;;;;;;5020719;28;20196;-73
2022/03/19 08:25:27;;;;;;;8.87;3.50;;;10.40;99.90;;;;;;5023136;28;20664;-72
2022/03/19 08:27:54;;;;;;;7.50;3.00;;;10.30;99.90;;;;;;5015168;28;20645;-73
2022/03/19 08:30:21;;;;;;;6.90;3.13;;;10.20;99.90;;;;;;5023848;28;20187;-73
2022/03/19 08:32:49;;;;;;;6.47;2.83;;;10.30;99.90;;;;;;5012233;28;20199;-73
2022/03/19 08:35:16;;;;;;;8.53;3.27;;;10.40;99.90;;;;;;5016909;28;20200;-73
2022/03/19 08:37:45;;;;;;;6.13;2.90;;;10.50;99.90;;;;;;5014740;28;20219;-73
2022/03/19 08:40:16;;;;;;;6.97;3.30;;;10.60;99.90;;;;;;5022196;28;20577;-76
2022/03/19 08:42:51;;;;;;;10.60;3.67;;;10.70;99.90;;;;;;5022780;28;20200;-73
2022/03/19 08:45:22;;;;;;;9.27;3.43;;;10.60;99.90;;;;;;5014009;28;20195;-75
2022/03/19 08:47:49;;;;;;;6.77;3.60;;;10.70;99.90;;;;;;5021355;28;20220;-75
2022/03/19 08:50:17;;;;;;;7.80;3.20;;;10.80;99.90;;;;;;5016996;28;20191;-72
2022/03/19 08:52:44;;;;;;;9.40;3.73;;;10.80;99.90;;;;;;5028216;28;20252;-75
2022/03/19 08:55:10;;;;;;;8.53;3.73;;;10.90;99.90;;;;;;5024681;28;20308;-74
2022/03/19 08:57:37;;;;;;;10.17;3.67;;;10.80;99.90;;;;;;5020946;28;20211;-73
2022/03/19 09:00:07;;;;;;;6.57;3.33;;;10.80;99.90;;;;;;5019597;28;20210;-75
2022/03/19 09:02:40;;;;;;;6.47;3.57;;;10.70;99.90;;;;;;5025156;28;20191;-71
2022/03/19 09:05:07;;;;;;;11.17;3.70;;;10.70;99.90;;;;;;5025576;28;20671;-71
2022/03/19 09:07:34;;;;;;;6.43;3.40;;;10.80;99.90;;;;;;5021622;28;20223;-74
2022/03/19 09:10:01;;;;;;;7.50;3.63;;;10.80;99.90;;;;;;5025178;28;20206;-74
2022/03/19 09:12:37;;;;;;;6.73;3.40;;;10.70;99.90;;;;;;5018498;28;20204;-74
2022/03/19 09:15:04;;;;;;;6.47;3.10;;;10.70;99.90;;;;;;5025270;28;20229;-73
2022/03/19 09:17:31;;;;;;;6.57;3.40;;;10.80;99.90;;;;;;5027500;28;20572;-73
2022/03/19 09:19:58;;;;;;;9.53;3.70;;;10.80;99.90;;;;;;5023870;28;20198;-75
2022/03/19 09:22:25;;;;;;;9.33;3.60;;;10.90;99.90;;;;;;5024624;28;20809;-74
2022/03/19 09:24:51;;;;;;;6.83;3.53;;;11.10;99.90;;;;;;5026272;28;20219;-73
2022/03/19 09:27:18;;;;;;;8.30;3.80;;;11.20;99.90;;;;;;5022748;28;20228;-74
2022/03/19 09:29:45;;;;;;;6.00;3.10;;;11.20;99.90;;;;;;5022250;28;20255;-73
2022/03/19 09:32:12;;;;;;;9.20;3.70;;;11.20;99.90;;;;;;5024118;28;20198;-74
2022/03/19 09:34:40;;;;;;;7.30;3.83;;;11.20;99.90;;;;;;5032200;28;20220;-73
2022/03/19 09:37:06;;;;;;;9.67;3.37;;;11.20;99.90;;;;;;5031952;28;20196;-74
2022/03/19 09:39:34;;;;;;;7.30;3.07;;;11.30;99.90;;;;;;5019928;28;20574;-73
2022/03/19 09:42:02;;;;;;;9.50;3.63;;;11.40;99.90;;;;;;5022555;28;20197;-72
2022/03/19 09:44:30;;;;;;;9.03;3.57;;;11.60;99.90;;;;;;5025340;28;20196;-71
2022/03/19 09:46:56;;;;;;;12.43;4.40;;;11.60;99.90;;;;;;5026157;28;20196;-72
2022/03/19 09:49:23;;;;;;;7.97;3.90;;;11.70;99.90;;;;;;5022350;28;20301;-73
2022/03/19 09:51:54;;;;;;;7.00;4.03;;;11.70;99.90;;;;;;5020857;28;20201;-74
2022/03/19 09:54:24;;;;;;;9.30;4.00;;;11.50;99.90;;;;;;5032062;28;20248;-72
2022/03/19 09:56:52;;;;;;;7.70;3.50;;;11.40;99.90;;;;;;5025600;28;20285;-73
2022/03/19 09:59:22;;;;;;;8.13;3.40;;;11.30;99.90;;;;;;5012792;28;20216;-73
2022/03/19 10:01:50;;;;;;;10.20;4.40;;;11.30;99.90;;;;;;5026238;28;20203;-74
2022/03/19 10:04:19;;;;;;;6.33;3.40;;;11.30;99.90;;;;;;5029726;28;20192;-76
2022/03/19 10:09:46;;;;;;;8.13;3.60;;;11.50;99.90;;;;;;5032136;28;20201;-73
2022/03/19 10:12:21;;;;;;;8.57;3.43;;;11.70;99.90;;;;;;5023480;28;20198;-73
2022/03/19 10:14:53;;;;;;;8.67;3.40;;;11.90;99.90;;;;;;5022401;28;20222;-74
2022/03/19 10:17:32;;;;;;;11.20;3.77;;;11.90;99.90;;;;;;5022692;28;20195;-73
2022/03/19 10:20:11;;;;;;;4.70;3.20;;;11.90;99.90;;;;;;5027470;28;20197;-73
2022/03/19 10:22:45;;;;;;;7.13;3.10;;;12.00;99.90;;;;;;5024398;28;20570;-71
2022/03/19 10:25:17;;;;;;;7.57;3.80;;;12.10;99.90;;;;;;5022594;28;20196;-73
2022/03/19 10:27:45;;;;;;;7.93;3.53;;;12.00;99.90;;;;;;5030015;28;20232;-73
2022/03/19 10:30:19;;;;;;;7.83;3.93;;;12.10;99.90;;;;;;5023473;28;20550;-75
2022/03/19 10:32:51;;;;;;;8.10;3.77;;;11.90;99.90;;;;;;5027318;28;20227;-72
2022/03/19 10:35:28;;;;;;;6.27;3.50;;;11.90;99.90;;;;;;5024797;28;20224;-73
2022/03/19 10:37:56;;;;;;;6.57;3.87;;;11.90;99.90;;;;;;5026585;28;20649;-74
2022/03/19 10:40:37;;;;;;;9.27;3.73;;;11.90;99.90;;;;;;5030535;28;20688;-75
2022/03/19 10:43:06;;;;;;;8.33;4.17;;;12.10;99.90;;;;;;5025874;28;20602;-77
2022/03/19 10:45:33;;;;;;;7.23;3.60;;;12.20;99.90;;;;;;5031447;28;20641;-72
2022/03/19 10:48:03;;;;;;;6.77;3.50;;;12.30;99.90;;;;;;5028738;28;20253;-73
2022/03/19 10:50:30;;;;;;;7.60;3.90;;;12.50;99.90;;;;;;5030988;28;20684;-73
2022/03/19 10:52:59;;;;;;;5.87;3.83;;;12.60;99.90;;;;;;5031255;28;20208;-75
2022/03/19 10:55:26;;;;;;;6.07;3.47;;;12.60;99.90;;;;;;5026520;28;20216;-75
2022/03/19 10:57:53;;;;;;;6.20;3.53;;;12.50;99.90;;;;;;5025478;28;20218;-74
2022/03/19 11:00:22;;;;;;;5.53;3.50;;;12.40;99.90;;;;;;5030786;28;20206;-73
2022/03/19 11:02:49;;;;;;;5.43;3.53;;;12.40;99.90;;;;;;5026206;28;20676;-74
2022/03/19 11:05:18;;;;;;;6.53;3.63;;;12.40;99.90;;;;;;5021996;28;20233;-72
2022/03/19 11:07:46;;;;;;;6.30;3.53;;;12.50;99.90;;;;;;5018639;28;20696;-74
2022/03/19 11:10:14;;;;;;;7.40;4.00;;;12.50;99.90;;;;;;5024137;28;20201;-72
2022/03/19 11:12:50;;;;;;;8.07;3.63;;;12.50;99.90;;;;;;5023867;28;20209;-76
2022/03/19 11:15:19;;;;;;;6.47;3.93;;;12.40;99.90;;;;;;5025745;28;20717;-73
2022/03/19 11:17:48;;;;;;;7.90;3.83;;;12.50;99.90;;;;;;5021733;28;20232;-73
2022/03/19 11:20:15;;;;;;;7.30;3.60;;;12.60;99.90;;;;;;5028609;28;20222;-73
2022/03/19 11:22:44;;;;;;;11.17;3.57;;;12.60;99.90;;;;;;5019571;28;20196;-73
2022/03/19 11:25:26;;;;;;;8.37;3.70;;;12.90;99.90;;;;;;5017325;28;20196;-73
2022/03/19 11:28:07;;;;;;;8.00;3.50;;;12.90;99.90;;;;;;5016403;28;20223;-73
2022/03/19 11:30:40;;;;;;;5.63;3.30;;;12.90;99.90;;;;;;5021575;28;20199;-74
2022/03/19 11:33:19;;;;;;;7.83;3.07;;;12.90;99.90;;;;;;5017983;28;20195;-76
2022/03/19 11:36:04;;;;;;;5.90;2.87;;;12.80;99.90;;;;;;5019310;28;20227;-74
2022/03/19 11:38:34;;;;;;;4.07;2.50;;;12.80;99.90;;;;;;5018701;28;20247;-72
2022/03/19 11:41:22;;;;;;;4.17;2.60;;;12.80;99.90;;;;;;5017126;28;20204;-73
2022/03/19 11:43:50;;;;;;;9.27;2.67;;;12.80;99.90;;;;;;5024308;28;20670;-73
2022/03/19 11:46:17;;;;;;;5.87;2.63;;;12.80;99.90;;;;;;5017808;28;20197;-75
2022/03/19 11:48:50;;;;;;;5.73;2.20;;;13.00;99.90;;;;;;5026244;28;20762;-72
2022/03/19 11:51:28;;;;;;;4.93;2.13;;;13.00;99.90;;;;;;5025277;28;20233;-73
2022/03/19 11:54:12;;;;;;;5.53;2.20;;;13.10;98.90;;;;;;5023126;28;20190;-71
2022/03/19 11:56:42;;;;;;;2.83;1.40;;;13.00;97.60;;;;;;5025983;28;20191;-74
2022/03/19 11:59:45;;;;;;;4.00;1.80;;;13.00;97.50;;;;;;5024404;28;20205;-74
2022/03/19 12:02:14;;;;;;;7.37;1.60;;;13.00;97.30;;;;;;5025582;28;20203;-74
2022/03/19 12:04:52;;;;;;;3.13;1.43;;;13.20;96.80;;;;;;5019764;28;20254;-72
2022/03/19 12:07:41;;;;;;;6.07;1.53;;;13.30;95.30;;;;;;5040639;28;20261;-73
2022/03/19 12:10:13;;;;;;;6.30;1.30;;;13.30;95.20;;;;;;5020348;28;20214;-73
2022/03/19 12:12:42;;;;;;;3.13;1.33;;;13.30;94.30;;;;;;5027289;28;20463;-72
2022/03/19 12:15:31;;;;;;;3.30;1.33;;;13.30;94.30;;;;;;5045005;28;20701;-73
2022/03/19 12:18:23;;;;;;;2.30;1.20;;;13.20;93.50;;;;;;5018941;28;20211;-75
2022/03/19 12:20:51;;;;;;;3.57;1.20;;;13.20;92.80;;;;;;5029208;28;20247;-73
2022/03/19 12:23:19;;;;;;;5.00;1.30;;;13.20;93.00;;;;;;5030109;28;20655;-74
2022/03/19 12:26:04;;;;;;;3.90;1.20;;;13.20;92.40;;;;;;5020151;28;20198;-74
2022/03/19 12:28:31;;;;;;;2.33;1.50;;;13.50;92.70;;;;;;5021973;28;20580;-74
2022/03/19 12:31:14;;;;;;;2.23;1.40;;;13.50;92.50;;;;;;5022816;28;20687;-75
2022/03/19 12:33:43;;;;;;;2.37;1.33;;;13.50;92.30;;;;;;5026260;28;20199;-74
2022/03/19 12:36:15;;;;;;;2.00;1.23;;;13.30;91.00;;;;;;5018334;28;20226;-74
2022/03/19 12:38:42;;;;;;;2.23;1.30;;;13.20;91.20;;;;;;5018847;28;20219;-73
2022/03/19 12:41:35;;;;;;;2.47;1.27;;;13.20;91.30;;;;;;5020512;28;20276;-74
2022/03/19 12:44:28;;;;;;;2.23;1.20;;;13.20;91.80;;;;;;5017022;28;20194;-73
2022/03/19 12:47:01;;;;;;;2.30;1.23;;;13.30;91.60;;;;;;5026458;28;20685;-72
2022/03/19 12:49:30;;;;;;;4.30;1.30;;;13.30;91.80;;;;;;5022782;28;20212;-72
2022/03/19 12:52:09;;;;;;;2.97;1.30;;;13.30;91.70;;;;;;5024318;28;20201;-74
2022/03/19 12:54:36;;;;;;;4.73;1.53;;;13.30;91.90;;;;;;5017812;28;20216;-75
2022/03/19 12:57:11;;;;;;;3.60;1.40;;;13.40;91.80;;;;;;5018656;28;20205;-74
2022/03/19 12:59:47;;;;;;;2.50;1.40;;;13.40;91.40;;;;;;5017187;28;20603;-73
2022/03/19 13:02:15;;;;;;;4.23;1.57;;;13.40;91.90;;;;;;5016662;28;20208;-73
2022/03/19 13:04:44;;;;;;;2.20;1.50;;;13.40;91.50;;;;;;5028865;28;20206;-71
2022/03/19 13:07:14;;;;;;;1.70;1.37;;;13.30;91.70;;;;;;5022739;28;20206;-73
2022/03/19 13:09:42;;;;;;;6.60;1.40;;;13.30;91.80;;;;;;5023724;28;20203;-71
2022/03/19 13:12:22;;;;;;;2.30;1.50;;;13.10;91.80;;;;;;5020765;28;20203;-71
2022/03/19 13:14:54;;;;;;;2.03;1.50;;;13.00;91.80;;;;;;5028031;28;20626;-71
2022/03/19 13:17:22;;;;;;;3.20;1.50;;;12.80;91.90;;;;;;5022895;28;20203;-70
2022/03/19 13:19:50;;;;;;;4.87;1.23;;;12.70;91.10;;;;;;5019485;28;20198;-70